sensor_id;sensor_type;location;lat;lon;timestamp;temperature;humidity
28177;DHT22;15461;41.652;9.378;2023-05-18T00:00:25;16.00;99.90
28177;DHT22;15461;41.652;9.378;2023-05-18T00:02:52;16.00;99.90
28177;DHT22;15461;41.652;9.378;2023-05-18T00:05:18;16.00;99.90
28177;DHT22;15461;41.652;9.378;2023-05-18T00:07:44;16.00;99.90
28177;DHT22;15461;41.652;9.378;2023-05-18T00:10:11;16.10;99.90
28177;DHT22;15461;41.652;9.378;2023-05-18T00:12:37;16.00;99.90
28177;DHT22;15461;41.652;9.378;2023-05-18T00:15:03;16.10;99.90
28177;DHT22;15461;41.652;9.378;2023-05-18T00:17:29;16.10;99.90
28177;DHT22;15461;41.652;9.378;2023-05-18T00:19:56;16.00;99.90
28177;DHT22;15461;41.652;9.378;2023-05-18T00:22:23;16.00;99.90
28177;DHT22;15461;41.652;9.378;2023-05-18T00:24:51;16.00;99.90
28177;DHT22;15461;41.652;9.378;2023-05-18T00:27:17;16.00;99.90
28177;DHT22;15461;41.652;9.378;2023-05-18T00:29:43;16.00;99.90
28177;DHT22;15461;41.652;9.378;2023-05-18T00:32:11;16.00;99.90
28177;DHT22;15461;41.652;9.378;2023-05-18T00:34:36;15.90;99.90
28177;DHT22;15461;41.652;9.378;2023-05-18T00:37:02;15.90;99.90
28177;DHT22;15461;41.652;9.378;2023-05-18T00:39:28;16.00;99.90
28177;DHT22;15461;41.652;9.378;2023-05-18T00:41:54;16.00;99.90
28177;DHT22;15461;41.652;9.378;2023-05-18T00:44:20;15.90;99.90
28177;DHT22;15461;41.652;9.378;2023-05-18T00:46:46;15.90;99.90
28177;DHT22;15461;41.652;9.378;2023-05-18T00:49:12;15.90;99.90
28177;DHT22;15461;41.652;9.378;2023-05-18T00:51:39;15.90;99.90
28177;DHT22;15461;41.652;9.378;2023-05-18T00:54:07;15.90;99.90
28177;DHT22;15461;41.652;9.378;2023-05-18T00:56:34;15.90;99.90
28177;DHT22;15461;41.652;9.378;2023-05-18T00:59:01;15.90;99.90
28177;DHT22;15461;41.652;9.378;2023-05-18T01:01:30;15.90;99.90
28177;DHT22;15461;41.652;9.378;2023-05-18T01:03:57;15.90;99.90
28177;DHT22;15461;41.652;9.378;2023-05-18T01:06:27;15.90;99.90
28177;DHT22;15461;41.652;9.378;2023-05-18T01:08:59;15.90;99.90
28177;DHT22;15461;41.652;9.378;2023-05-18T01:14:47;15.90;99.90
28177;DHT22;15461;41.652;9.378;2023-05-18T01:20:24;15.90;99.90
28177;DHT22;15461;41.652;9.378;2023-05-18T01:28:20;15.90;99.90
28177;DHT22;15461;41.652;9.378;2023-05-18T01:30:47;15.90;99.90
28177;DHT22;15461;41.652;9.378;2023-05-18T01:33:13;15.90;99.90
28177;DHT22;15461;41.652;9.378;2023-05-18T01:35:39;15.90;99.90
28177;DHT22;15461;41.652;9.378;2023-05-18T01:38:18;15.90;99.90
28177;DHT22;15461;41.652;9.378;2023-05-18T01:44:06;15.90;99.90
28177;DHT22;15461;41.652;9.378;2023-05-18T01:46:59;15.90;99.90
28177;DHT22;15461;41.652;9.378;2023-05-18T01:49:32;16.00;99.90
28177;DHT22;15461;41.652;9.378;2023-05-18T01:52:10;16.00;99.90
28177;DHT22;15461;41.652;9.378;2023-05-18T01:54:40;16.00;99.90
28177;DHT22;15461;41.652;9.378;2023-05-18T01:57:08;16.00;99.90
28177;DHT22;15461;41.652;9.378;2023-05-18T01:59:36;16.00;99.90
28177;DHT22;15461;41.652;9.378;2023-05-18T02:02:04;16.00;99.90
28177;DHT22;15461;41.652;9.378;2023-05-18T02:04:30;16.00;99.90
28177;DHT22;15461;41.652;9.378;2023-05-18T02:06:56;16.00;99.90
28177;DHT22;15461;41.652;9.378;2023-05-18T02:09:22;16.00;99.90
28177;DHT22;15461;41.652;9.378;2023-05-18T02:11:49;15.90;99.90
28177;DHT22;15461;41.652;9.378;2023-05-18T02:14:15;15.90;99.90
28177;DHT22;15461;41.652;9.378;2023-05-18T02:16:41;15.80;99.90
28177;DHT22;15461;41.652;9.378;2023-05-18T02:19:12;15.80;99.90
28177;DHT22;15461;41.652;9.378;2023-05-18T02:21:40;15.80;99.90
28177;DHT22;15461;41.652;9.378;2023-05-18T02:24:08;15.80;99.90
28177;DHT22;15461;41.652;9.378;2023-05-18T02:26:34;15.80;99.90
28177;DHT22;15461;41.652;9.378;2023-05-18T02:29:02;15.80;99.90
28177;DHT22;15461;41.652;9.378;2023-05-18T02:31:31;15.80;99.90
28177;DHT22;15461;41.652;9.378;2023-05-18T02:34:00;15.90;99.90
28177;DHT22;15461;41.652;9.378;2023-05-18T02:36:26;16.00;99.90
28177;DHT22;15461;41.652;9.378;2023-05-18T02:38:52;16.10;99.90
28177;DHT22;15461;41.652;9.378;2023-05-18T02:41:17;16.20;99.90
28177;DHT22;15461;41.652;9.378;2023-05-18T02:43:43;16.30;99.90
28177;DHT22;15461;41.652;9.378;2023-05-18T02:46:09;16.40;99.90
28177;DHT22;15461;41.652;9.378;2023-05-18T02:48:35;16.50;99.90
28177;DHT22;15461;41.652;9.378;2023-05-18T02:51:01;16.50;99.90
28177;DHT22;15461;41.652;9.378;2023-05-18T02:53:27;16.60;99.90
28177;DHT22;15461;41.652;9.378;2023-05-18T02:55:59;16.60;99.90
28177;DHT22;15461;41.652;9.378;2023-05-18T02:58:35;16.70;99.90
28177;DHT22;15461;41.652;9.378;2023-05-18T03:01:08;16.80;99.90
28177;DHT22;15461;41.652;9.378;2023-05-18T03:03:40;16.80;99.90
28177;DHT22;15461;41.652;9.378;2023-05-18T03:06:07;16.80;99.90
28177;DHT22;15461;41.652;9.378;2023-05-18T03:08:34;16.80;99.90
28177;DHT22;15461;41.652;9.378;2023-05-18T03:11:02;16.80;99.90
28177;DHT22;15461;41.652;9.378;2023-05-18T03:13:29;16.80;99.90
28177;DHT22;15461;41.652;9.378;2023-05-18T03:15:55;16.80;99.90
28177;DHT22;15461;41.652;9.378;2023-05-18T03:18:21;16.80;99.90
28177;DHT22;15461;41.652;9.378;2023-05-18T03:20:49;16.80;99.90
28177;DHT22;15461;41.652;9.378;2023-05-18T03:23:18;16.80;99.90
28177;DHT22;15461;41.652;9.378;2023-05-18T03:25:45;16.80;99.90
28177;DHT22;15461;41.652;9.378;2023-05-18T03:28:11;16.80;99.90
28177;DHT22;15461;41.652;9.378;2023-05-18T03:30:37;16.80;99.90
28177;DHT22;15461;41.652;9.378;2023-05-18T03:33:04;16.80;99.90
28177;DHT22;15461;41.652;9.378;2023-05-18T03:35:30;16.80;99.90
28177;DHT22;15461;41.652;9.378;2023-05-18T03:37:56;16.80;99.90
28177;DHT22;15461;41.652;9.378;2023-05-18T03:40:23;16.80;99.90
28177;DHT22;15461;41.652;9.378;2023-05-18T03:42:49;16.80;99.90
28177;DHT22;15461;41.652;9.378;2023-05-18T03:45:17;16.70;99.90
28177;DHT22;15461;41.652;9.378;2023-05-18T03:47:43;16.70;99.90
28177;DHT22;15461;41.652;9.378;2023-05-18T03:50:09;16.70;99.90
28177;DHT22;15461;41.652;9.378;2023-05-18T03:52:36;16.80;99.90
28177;DHT22;15461;41.652;9.378;2023-05-18T03:55:02;16.80;99.90
28177;DHT22;15461;41.652;9.378;2023-05-18T03:57:31;16.70;99.90
28177;DHT22;15461;41.652;9.378;2023-05-18T03:59:59;16.70;99.90
28177;DHT22;15461;41.652;9.378;2023-05-18T04:02:25;16.70;99.90
28177;DHT22;15461;41.652;9.378;2023-05-18T04:04:51;16.70;99.90
28177;DHT22;15461;41.652;9.378;2023-05-18T04:07:19;16.70;99.90
28177;DHT22;15461;41.652;9.378;2023-05-18T04:09:54;16.70;99.90
28177;DHT22;15461;41.652;9.378;2023-05-18T04:12:20;16.70;99.90
28177;DHT22;15461;41.652;9.378;2023-05-18T04:14:46;16.70;99.90
28177;DHT22;15461;41.652;9.378;2023-05-18T04:17:18;16.70;99.90
28177;DHT22;15461;41.652;9.378;2023-05-18T04:19:48;16.80;99.90
28177;DHT22;15461;41.652;9.378;2023-05-18T04:22:15;16.70;99.90
28177;DHT22;15461;41.652;9.378;2023-05-18T04:24:42;16.70;99.90
28177;DHT22;15461;41.652;9.378;2023-05-18T04:27:10;16.70;99.90
28177;DHT22;15461;41.652;9.378;2023-05-18T04:29:36;16.60;99.90
28177;DHT22;15461;41.652;9.378;2023-05-18T04:32:08;16.70;99.90
28177;DHT22;15461;41.652;9.378;2023-05-18T04:34:35;16.60;99.90
28177;DHT22;15461;41.652;9.378;2023-05-18T04:37:05;16.70;99.90
28177;DHT22;15461;41.652;9.378;2023-05-18T04:39:32;16.60;99.90
28177;DHT22;15461;41.652;9.378;2023-05-18T04:42:00;16.60;99.90
28177;DHT22;15461;41.652;9.378;2023-05-18T04:44:31;16.60;99.90
28177;DHT22;15461;41.652;9.378;2023-05-18T04:46:59;16.60;99.90
28177;DHT22;15461;41.652;9.378;2023-05-18T04:49:26;16.60;99.90
28177;DHT22;15461;41.652;9.378;2023-05-18T04:51:54;16.70;99.90
28177;DHT22;15461;41.652;9.378;2023-05-18T04:54:22;16.70;99.90
28177;DHT22;15461;41.652;9.378;2023-05-18T04:56:49;16.70;99.90
28177;DHT22;15461;41.652;9.378;2023-05-18T04:59:16;16.70;99.90
28177;DHT22;15461;41.652;9.378;2023-05-18T05:01:42;16.70;99.90
28177;DHT22;15461;41.652;9.378;2023-05-18T05:04:10;16.70;99.90
28177;DHT22;15461;41.652;9.378;2023-05-18T05:06:36;16.70;99.90
28177;DHT22;15461;41.652;9.378;2023-05-18T05:09:02;16.70;99.90
28177;DHT22;15461;41.652;9.378;2023-05-18T05:11:28;16.70;99.90
28177;DHT22;15461;41.652;9.378;2023-05-18T05:13:54;16.70;99.90
28177;DHT22;15461;41.652;9.378;2023-05-18T05:16:20;16.70;99.90
28177;DHT22;15461;41.652;9.378;2023-05-18T05:18:46;16.80;99.90
28177;DHT22;15461;41.652;9.378;2023-05-18T05:21:11;16.80;99.90
28177;DHT22;15461;41.652;9.378;2023-05-18T05:23:38;16.80;99.90
28177;DHT22;15461;41.652;9.378;2023-05-18T05:26:04;16.90;99.90
28177;DHT22;15461;41.652;9.378;2023-05-18T05:28:31;17.00;99.90
28177;DHT22;15461;41.652;9.378;2023-05-18T05:30:56;17.00;99.90
28177;DHT22;15461;41.652;9.378;2023-05-18T05:33:23;17.00;99.90
28177;DHT22;15461;41.652;9.378;2023-05-18T05:35:49;17.00;99.90
28177;DHT22;15461;41.652;9.378;2023-05-18T05:38:15;17.00;99.90
28177;DHT22;15461;41.652;9.378;2023-05-18T05:40:41;17.10;99.90
28177;DHT22;15461;41.652;9.378;2023-05-18T05:43:07;17.10;99.90
28177;DHT22;15461;41.652;9.378;2023-05-18T05:45:34;17.20;99.90
28177;DHT22;15461;41.652;9.378;2023-05-18T05:48:03;17.30;99.90
28177;DHT22;15461;41.652;9.378;2023-05-18T05:50:31;17.30;99.90
28177;DHT22;15461;41.652;9.378;2023-05-18T05:52:59;17.40;99.90
28177;DHT22;15461;41.652;9.378;2023-05-18T05:55:27;17.40;99.90
28177;DHT22;15461;41.652;9.378;2023-05-18T05:57:53;17.50;99.90
28177;DHT22;15461;41.652;9.378;2023-05-18T06:00:20;17.70;99.90
28177;DHT22;15461;41.652;9.378;2023-05-18T06:02:57;17.80;99.90
28177;DHT22;15461;41.652;9.378;2023-05-18T06:05:39;17.90;99.90
28177;DHT22;15461;41.652;9.378;2023-05-18T06:08:08;17.90;99.90
28177;DHT22;15461;41.652;9.378;2023-05-18T06:10:34;18.00;99.90
28177;DHT22;15461;41.652;9.378;2023-05-18T06:13:00;18.00;99.90
28177;DHT22;15461;41.652;9.378;2023-05-18T06:15:41;18.10;99.90
28177;DHT22;15461;41.652;9.378;2023-05-18T06:18:07;18.10;99.90
28177;DHT22;15461;41.652;9.378;2023-05-18T06:20:33;18.10;99.90
28177;DHT22;15461;41.652;9.378;2023-05-18T06:22:59;18.10;99.90
28177;DHT22;15461;41.652;9.378;2023-05-18T06:25:37;18.00;99.90
28177;DHT22;15461;41.652;9.378;2023-05-18T06:28:16;18.00;99.90
28177;DHT22;15461;41.652;9.378;2023-05-18T06:30:49;17.90;99.90
28177;DHT22;15461;41.652;9.378;2023-05-18T06:33:20;18.00;99.90
28177;DHT22;15461;41.652;9.378;2023-05-18T06:35:48;18.00;99.90
28177;DHT22;15461;41.652;9.378;2023-05-18T06:38:14;18.10;99.90
28177;DHT22;15461;41.652;9.378;2023-05-18T06:40:40;18.10;99.90
28177;DHT22;15461;41.652;9.378;2023-05-18T06:43:06;18.10;99.90
28177;DHT22;15461;41.652;9.378;2023-05-18T06:45:46;18.10;99.90
28177;DHT22;15461;41.652;9.378;2023-05-18T06:48:19;18.20;99.90
28177;DHT22;15461;41.652;9.378;2023-05-18T06:50:45;18.10;99.90
28177;DHT22;15461;41.652;9.378;2023-05-18T06:53:11;18.20;99.90
28177;DHT22;15461;41.652;9.378;2023-05-18T06:55:38;18.30;99.90
28177;DHT22;15461;41.652;9.378;2023-05-18T06:58:04;18.40;99.90
28177;DHT22;15461;41.652;9.378;2023-05-18T07:00:30;18.60;99.90
28177;DHT22;15461;41.652;9.378;2023-05-18T07:02:56;18.70;99.90
28177;DHT22;15461;41.652;9.378;2023-05-18T07:05:23;18.80;99.90
28177;DHT22;15461;41.652;9.378;2023-05-18T07:07:49;18.80;99.90
28177;DHT22;15461;41.652;9.378;2023-05-18T07:10:15;18.80;99.90
28177;DHT22;15461;41.652;9.378;2023-05-18T07:12:41;18.80;99.90
28177;DHT22;15461;41.652;9.378;2023-05-18T07:15:07;18.80;99.90
28177;DHT22;15461;41.652;9.378;2023-05-18T07:17:33;18.80;99.90
28177;DHT22;15461;41.652;9.378;2023-05-18T07:19:59;18.80;99.90
28177;DHT22;15461;41.652;9.378;2023-05-18T07:22:25;18.80;99.90
28177;DHT22;15461;41.652;9.378;2023-05-18T07:24:51;18.80;99.90
28177;DHT22;15461;41.652;9.378;2023-05-18T07:27:17;18.70;99.90
28177;DHT22;15461;41.652;9.378;2023-05-18T07:29:42;18.70;99.90
28177;DHT22;15461;41.652;9.378;2023-05-18T07:32:08;18.70;99.90
28177;DHT22;15461;41.652;9.378;2023-05-18T07:34:34;18.80;99.90
28177;DHT22;15461;41.652;9.378;2023-05-18T07:37:00;18.80;99.90
28177;DHT22;15461;41.652;9.378;2023-05-18T07:39:26;19.00;99.90
28177;DHT22;15461;41.652;9.378;2023-05-18T07:41:54;19.00;99.90
28177;DHT22;15461;41.652;9.378;2023-05-18T07:44:20;19.00;99.90
28177;DHT22;15461;41.652;9.378;2023-05-18T07:46:46;19.10;99.90
28177;DHT22;15461;41.652;9.378;2023-05-18T07:49:12;19.20;99.90
28177;DHT22;15461;41.652;9.378;2023-05-18T07:51:38;19.20;99.90
28177;DHT22;15461;41.652;9.378;2023-05-18T07:54:04;19.20;99.90
28177;DHT22;15461;41.652;9.378;2023-05-18T07:56:30;19.20;99.90
28177;DHT22;15461;41.652;9.378;2023-05-18T07:58:56;19.10;99.90
28177;DHT22;15461;41.652;9.378;2023-05-18T08:01:22;19.10;99.90
28177;DHT22;15461;41.652;9.378;2023-05-18T08:03:52;19.00;99.90
28177;DHT22;15461;41.652;9.378;2023-05-18T08:06:19;19.00;99.90
28177;DHT22;15461;41.652;9.378;2023-05-18T08:08:45;19.00;99.90
28177;DHT22;15461;41.652;9.378;2023-05-18T08:11:11;19.00;99.90
28177;DHT22;15461;41.652;9.378;2023-05-18T08:13:37;19.10;99.90
28177;DHT22;15461;41.652;9.378;2023-05-18T08:16:03;19.20;99.90
28177;DHT22;15461;41.652;9.378;2023-05-18T08:18:29;19.20;99.90
28177;DHT22;15461;41.652;9.378;2023-05-18T08:20:55;19.20;99.90
28177;DHT22;15461;41.652;9.378;2023-05-18T08:23:24;19.20;99.90
28177;DHT22;15461;41.652;9.378;2023-05-18T08:25:50;19.20;99.90
28177;DHT22;15461;41.652;9.378;2023-05-18T08:28:16;19.30;99.90
28177;DHT22;15461;41.652;9.378;2023-05-18T08:30:41;19.40;99.90
28177;DHT22;15461;41.652;9.378;2023-05-18T08:33:07;19.30;99.90
28177;DHT22;15461;41.652;9.378;2023-05-18T08:35:33;19.30;99.90
28177;DHT22;15461;41.652;9.378;2023-05-18T08:37:59;19.30;99.90
28177;DHT22;15461;41.652;9.378;2023-05-18T08:40:36;19.20;99.90
28177;DHT22;15461;41.652;9.378;2023-05-18T08:43:11;19.20;99.90
28177;DHT22;15461;41.652;9.378;2023-05-18T08:45:51;19.30;99.90
28177;DHT22;15461;41.652;9.378;2023-05-18T08:48:18;19.40;99.90
28177;DHT22;15461;41.652;9.378;2023-05-18T08:50:48;19.40;99.90
28177;DHT22;15461;41.652;9.378;2023-05-18T08:53:17;19.20;99.90
28177;DHT22;15461;41.652;9.378;2023-05-18T08:55:47;19.30;99.90
28177;DHT22;15461;41.652;9.378;2023-05-18T08:58:18;19.40;99.90
28177;DHT22;15461;41.652;9.378;2023-05-18T09:00:44;19.40;99.90
28177;DHT22;15461;41.652;9.378;2023-05-18T09:03:10;19.50;99.90
28177;DHT22;15461;41.652;9.378;2023-05-18T09:05:40;19.60;99.90
28177;DHT22;15461;41.652;9.378;2023-05-18T09:08:08;19.60;99.90
28177;DHT22;15461;41.652;9.378;2023-05-18T09:10:35;19.50;99.90
28177;DHT22;15461;41.652;9.378;2023-05-18T09:13:03;19.30;99.90
28177;DHT22;15461;41.652;9.378;2023-05-18T09:15:31;19.10;99.90
28177;DHT22;15461;41.652;9.378;2023-05-18T09:17:57;18.90;99.90
28177;DHT22;15461;41.652;9.378;2023-05-18T09:20:25;18.80;99.90
28177;DHT22;15461;41.652;9.378;2023-05-18T09:22:52;18.80;99.90
28177;DHT22;15461;41.652;9.378;2023-05-18T09:25:20;18.70;99.90
28177;DHT22;15461;41.652;9.378;2023-05-18T09:27:48;18.70;99.90
28177;DHT22;15461;41.652;9.378;2023-05-18T09:30:16;18.60;99.90
28177;DHT22;15461;41.652;9.378;2023-05-18T09:32:46;18.60;99.90
28177;DHT22;15461;41.652;9.378;2023-05-18T09:35:12;18.70;99.90
28177;DHT22;15461;41.652;9.378;2023-05-18T09:37:40;18.90;99.90
28177;DHT22;15461;41.652;9.378;2023-05-18T09:40:07;19.20;99.90
28177;DHT22;15461;41.652;9.378;2023-05-18T09:42:41;19.50;99.90
28177;DHT22;15461;41.652;9.378;2023-05-18T09:45:20;19.60;99.90
28177;DHT22;15461;41.652;9.378;2023-05-18T09:47:52;19.60;99.90
28177;DHT22;15461;41.652;9.378;2023-05-18T09:50:21;19.40;99.90
28177;DHT22;15461;41.652;9.378;2023-05-18T09:52:48;19.20;99.90
28177;DHT22;15461;41.652;9.378;2023-05-18T09:55:15;19.20;99.90
28177;DHT22;15461;41.652;9.378;2023-05-18T09:57:46;19.10;99.90
28177;DHT22;15461;41.652;9.378;2023-05-18T10:00:17;19.20;99.90
28177;DHT22;15461;41.652;9.378;2023-05-18T10:02:45;19.20;99.90
28177;DHT22;15461;41.652;9.378;2023-05-18T10:05:20;19.10;99.90
28177;DHT22;15461;41.652;9.378;2023-05-18T10:07:46;19.00;99.90
28177;DHT22;15461;41.652;9.378;2023-05-18T10:10:17;18.90;99.90
28177;DHT22;15461;41.652;9.378;2023-05-18T10:12:44;18.80;99.90
28177;DHT22;15461;41.652;9.378;2023-05-18T10:15:14;18.80;99.90
28177;DHT22;15461;41.652;9.378;2023-05-18T10:17:41;18.80;99.90
28177;DHT22;15461;41.652;9.378;2023-05-18T10:20:08;18.80;99.90
28177;DHT22;15461;41.652;9.378;2023-05-18T10:22:35;19.00;99.90
28177;DHT22;15461;41.652;9.378;2023-05-18T10:25:05;19.00;99.90
28177;DHT22;15461;41.652;9.378;2023-05-18T10:27:34;19.20;99.90
28177;DHT22;15461;41.652;9.378;2023-05-18T10:30:01;19.40;99.90
28177;DHT22;15461;41.652;9.378;2023-05-18T10:32:34;19.60;99.90
28177;DHT22;15461;41.652;9.378;2023-05-18T10:35:02;19.50;99.90
28177;DHT22;15461;41.652;9.378;2023-05-18T10:37:32;19.50;99.90
28177;DHT22;15461;41.652;9.378;2023-05-18T10:40:00;19.40;99.90
28177;DHT22;15461;41.652;9.378;2023-05-18T10:42:29;19.40;99.90
28177;DHT22;15461;41.652;9.378;2023-05-18T10:44:56;19.40;99.90
28177;DHT22;15461;41.652;9.378;2023-05-18T10:47:27;19.50;99.90
28177;DHT22;15461;41.652;9.378;2023-05-18T10:49:53;19.60;99.90
28177;DHT22;15461;41.652;9.378;2023-05-18T10:52:20;19.70;99.90
28177;DHT22;15461;41.652;9.378;2023-05-18T10:54:48;19.70;99.90
28177;DHT22;15461;41.652;9.378;2023-05-18T10:57:16;19.70;99.90
28177;DHT22;15461;41.652;9.378;2023-05-18T10:59:44;19.80;99.90
28177;DHT22;15461;41.652;9.378;2023-05-18T11:02:13;19.80;99.90
28177;DHT22;15461;41.652;9.378;2023-05-18T11:04:40;19.70;99.90
28177;DHT22;15461;41.652;9.378;2023-05-18T11:07:10;19.70;99.90
28177;DHT22;15461;41.652;9.378;2023-05-18T11:09:40;19.60;99.90
28177;DHT22;15461;41.652;9.378;2023-05-18T11:12:11;19.70;99.90
28177;DHT22;15461;41.652;9.378;2023-05-18T11:14:47;19.70;99.90
28177;DHT22;15461;41.652;9.378;2023-05-18T11:17:23;19.70;99.90
28177;DHT22;15461;41.652;9.378;2023-05-18T11:22:46;19.90;99.90
28177;DHT22;15461;41.652;9.378;2023-05-18T11:28:01;20.10;99.90
28177;DHT22;15461;41.652;9.378;2023-05-18T11:30:46;20.30;99.90
28177;DHT22;15461;41.652;9.378;2023-05-18T11:33:15;20.50;99.90
28177;DHT22;15461;41.652;9.378;2023-05-18T11:36:13;20.60;99.90
28177;DHT22;15461;41.652;9.378;2023-05-18T11:39:02;20.60;99.90
28177;DHT22;15461;41.652;9.378;2023-05-18T11:41:35;20.50;99.90
28177;DHT22;15461;41.652;9.378;2023-05-18T11:46:37;20.40;99.90
28177;DHT22;15461;41.652;9.378;2023-05-18T11:49:08;20.40;99.90
28177;DHT22;15461;41.652;9.378;2023-05-18T11:54:23;20.40;99.90
28177;DHT22;15461;41.652;9.378;2023-05-18T11:56:51;20.40;99.90
28177;DHT22;15461;41.652;9.378;2023-05-18T11:59:17;20.40;99.90
28177;DHT22;15461;41.652;9.378;2023-05-18T12:01:56;20.40;99.90
28177;DHT22;15461;41.652;9.378;2023-05-18T12:04:23;20.40;99.90
28177;DHT22;15461;41.652;9.378;2023-05-18T12:06:50;20.40;99.90
28177;DHT22;15461;41.652;9.378;2023-05-18T12:09:17;20.50;99.90
28177;DHT22;15461;41.652;9.378;2023-05-18T12:11:44;20.60;99.90
28177;DHT22;15461;41.652;9.378;2023-05-18T12:14:11;20.70;99.90
28177;DHT22;15461;41.652;9.378;2023-05-18T12:16:38;20.70;99.90
28177;DHT22;15461;41.652;9.378;2023-05-18T12:19:08;20.70;99.90
28177;DHT22;15461;41.652;9.378;2023-05-18T12:21:35;20.80;99.90
28177;DHT22;15461;41.652;9.378;2023-05-18T12:27:09;21.10;99.90
28177;DHT22;15461;41.652;9.378;2023-05-18T12:29:40;21.30;99.90
28177;DHT22;15461;41.652;9.378;2023-05-18T12:32:10;21.50;99.90
28177;DHT22;15461;41.652;9.378;2023-05-18T12:34:37;21.40;99.90
28177;DHT22;15461;41.652;9.378;2023-05-18T12:37:05;21.40;99.90
28177;DHT22;15461;41.652;9.378;2023-05-18T12:39:32;21.40;99.90
28177;DHT22;15461;41.652;9.378;2023-05-18T12:42:14;21.10;99.90
28177;DHT22;15461;41.652;9.378;2023-05-18T12:44:41;20.90;99.90
28177;DHT22;15461;41.652;9.378;2023-05-18T12:47:11;20.80;99.90
28177;DHT22;15461;41.652;9.378;2023-05-18T12:49:38;20.80;99.90
28177;DHT22;15461;41.652;9.378;2023-05-18T12:52:13;20.80;99.90
28177;DHT22;15461;41.652;9.378;2023-05-18T12:54:55;20.80;99.90
28177;DHT22;15461;41.652;9.378;2023-05-18T12:57:26;20.70;99.90
28177;DHT22;15461;41.652;9.378;2023-05-18T12:59:53;20.60;99.90
28177;DHT22;15461;41.652;9.378;2023-05-18T13:02:32;20.50;99.90
28177;DHT22;15461;41.652;9.378;2023-05-18T13:05:09;20.30;99.90
28177;DHT22;15461;41.652;9.378;2023-05-18T13:07:41;20.20;99.90
28177;DHT22;15461;41.652;9.378;2023-05-18T13:10:17;20.30;99.90
28177;DHT22;15461;41.652;9.378;2023-05-18T13:15:16;20.20;99.90
28177;DHT22;15461;41.652;9.378;2023-05-18T13:20:21;20.10;99.90
28177;DHT22;15461;41.652;9.378;2023-05-18T13:22:49;20.00;99.90
28177;DHT22;15461;41.652;9.378;2023-05-18T13:25:15;20.10;99.90
28177;DHT22;15461;41.652;9.378;2023-05-18T13:27:42;20.20;99.90
28177;DHT22;15461;41.652;9.378;2023-05-18T13:30:10;20.30;99.90
28177;DHT22;15461;41.652;9.378;2023-05-18T13:32:36;20.40;99.90
28177;DHT22;15461;41.652;9.378;2023-05-18T13:35:04;20.70;99.90
28177;DHT22;15461;41.652;9.378;2023-05-18T13:37:30;21.00;99.90
28177;DHT22;15461;41.652;9.378;2023-05-18T13:39:56;21.10;99.90
28177;DHT22;15461;41.652;9.378;2023-05-18T13:42:22;21.20;99.90
28177;DHT22;15461;41.652;9.378;2023-05-18T13:44:48;21.30;99.90
28177;DHT22;15461;41.652;9.378;2023-05-18T13:47:13;21.30;99.90
28177;DHT22;15461;41.652;9.378;2023-05-18T13:49:40;21.20;99.90
28177;DHT22;15461;41.652;9.378;2023-05-18T13:52:06;21.10;99.90
28177;DHT22;15461;41.652;9.378;2023-05-18T13:54:32;20.90;99.90
28177;DHT22;15461;41.652;9.378;2023-05-18T13:56:58;20.70;99.90
28177;DHT22;15461;41.652;9.378;2023-05-18T13:59:24;20.50;99.90
28177;DHT22;15461;41.652;9.378;2023-05-18T14:01:50;20.30;99.90
28177;DHT22;15461;41.652;9.378;2023-05-18T14:04:16;20.10;99.90
28177;DHT22;15461;41.652;9.378;2023-05-18T14:06:42;20.00;99.90
28177;DHT22;15461;41.652;9.378;2023-05-18T14:09:08;19.70;99.90
28177;DHT22;15461;41.652;9.378;2023-05-18T14:11:34;19.50;99.90
28177;DHT22;15461;41.652;9.378;2023-05-18T14:14:03;19.40;99.90
28177;DHT22;15461;41.652;9.378;2023-05-18T14:16:29;19.40;99.90
28177;DHT22;15461;41.652;9.378;2023-05-18T14:18:55;19.30;99.90
28177;DHT22;15461;41.652;9.378;2023-05-18T14:21:21;19.30;99.90
28177;DHT22;15461;41.652;9.378;2023-05-18T14:23:47;19.20;99.90
28177;DHT22;15461;41.652;9.378;2023-05-18T14:26:13;19.20;99.90
28177;DHT22;15461;41.652;9.378;2023-05-18T14:28:39;19.10;99.90
28177;DHT22;15461;41.652;9.378;2023-05-18T14:31:05;19.00;99.90
28177;DHT22;15461;41.652;9.378;2023-05-18T14:33:31;19.00;99.90
28177;DHT22;15461;41.652;9.378;2023-05-18T14:35:57;19.00;99.90
28177;DHT22;15461;41.652;9.378;2023-05-18T14:38:23;19.10;99.90
28177;DHT22;15461;41.652;9.378;2023-05-18T14:40:52;19.00;99.90
28177;DHT22;15461;41.652;9.378;2023-05-18T14:43:18;19.00;99.90
28177;DHT22;15461;41.652;9.378;2023-05-18T14:49:32;18.80;99.90
28177;DHT22;15461;41.652;9.378;2023-05-18T14:51:58;18.80;99.90
28177;DHT22;15461;41.652;9.378;2023-05-18T14:54:24;18.70;99.90
28177;DHT22;15461;41.652;9.378;2023-05-18T14:56:50;18.70;99.90
28177;DHT22;15461;41.652;9.378;2023-05-18T14:59:16;18.70;99.90
28177;DHT22;15461;41.652;9.378;2023-05-18T15:01:42;18.70;99.90
28177;DHT22;15461;41.652;9.378;2023-05-18T15:04:08;18.80;99.90
28177;DHT22;15461;41.652;9.378;2023-05-18T15:06:34;18.80;99.90
28177;DHT22;15461;41.652;9.378;2023-05-18T15:09:02;18.80;99.90
28177;DHT22;15461;41.652;9.378;2023-05-18T15:11:30;18.70;99.90
28177;DHT22;15461;41.652;9.378;2023-05-18T15:13:57;18.60;99.90
28177;DHT22;15461;41.652;9.378;2023-05-18T15:16:23;18.60;99.90
28177;DHT22;15461;41.652;9.378;2023-05-18T15:18:49;18.60;99.90
28177;DHT22;15461;41.652;9.378;2023-05-18T15:21:15;18.60;99.90
28177;DHT22;15461;41.652;9.378;2023-05-18T15:23:40;18.70;99.90
28177;DHT22;15461;41.652;9.378;2023-05-18T15:26:06;18.60;99.90
28177;DHT22;15461;41.652;9.378;2023-05-18T15:28:32;18.50;99.90
28177;DHT22;15461;41.652;9.378;2023-05-18T15:30:58;18.50;99.90
28177;DHT22;15461;41.652;9.378;2023-05-18T15:33:24;18.40;99.90
28177;DHT22;15461;41.652;9.378;2023-05-18T15:35:50;18.30;99.90
28177;DHT22;15461;41.652;9.378;2023-05-18T15:38:16;18.30;99.90
28177;DHT22;15461;41.652;9.378;2023-05-18T15:40:42;18.20;99.90
28177;DHT22;15461;41.652;9.378;2023-05-18T15:43:11;18.20;99.90
28177;DHT22;15461;41.652;9.378;2023-05-18T15:45:37;18.20;99.90
28177;DHT22;15461;41.652;9.378;2023-05-18T15:48:03;18.20;99.90
28177;DHT22;15461;41.652;9.378;2023-05-18T15:50:29;18.20;99.90
28177;DHT22;15461;41.652;9.378;2023-05-18T15:52:55;18.20;99.90
28177;DHT22;15461;41.652;9.378;2023-05-18T15:55:21;18.10;99.90
28177;DHT22;15461;41.652;9.378;2023-05-18T15:57:46;18.20;99.90
28177;DHT22;15461;41.652;9.378;2023-05-18T16:00:13;18.20;99.90
28177;DHT22;15461;41.652;9.378;2023-05-18T16:02:39;18.20;99.90
28177;DHT22;15461;41.652;9.378;2023-05-18T16:05:06;18.20;99.90
28177;DHT22;15461;41.652;9.378;2023-05-18T16:07:31;18.20;99.90
28177;DHT22;15461;41.652;9.378;2023-05-18T16:09:57;18.30;99.90
28177;DHT22;15461;41.652;9.378;2023-05-18T16:12:23;18.30;99.90